Time;durP1;ratioP1;P1;durP2;ratioP2;P2;SDS_P1;SDS_P2;PMS_P1;PMS_P2;Temp;Humidity;BMP_temperature;BMP_pressure;BME280_temperature;BME280_humidity;BME280_pressure;Samples;Min_cycle;Max_cycle;Signal;HPM_P1;HPM_P2
2022/07/07 00:01:01;;;;;;;;;18.00;18.00;27.90;36.80;;;;;;5079342;28;8824;-79
2022/07/07 00:03:27;;;;;;;;;21.67;21.67;27.90;36.80;;;;;;5097459;28;8744;-80
2022/07/07 00:05:52;;;;;;;;;18.67;18.67;27.90;36.70;;;;;;5097430;28;8740;-81
2022/07/07 00:08:19;;;;;;;;;20.33;20.33;27.90;36.90;;;;;;5097383;28;8762;-79
2022/07/07 00:10:45;;;;;;;;;17.33;17.33;27.80;36.90;;;;;;5097288;28;11425;-79
2022/07/07 00:13:11;;;;;;;;;19.00;19.00;27.80;37.00;;;;;;5097243;28;8732;-80
2022/07/07 00:15:37;;;;;;;;;19.33;19.33;27.80;37.00;;;;;;5097204;28;8744;-80
2022/07/07 00:18:03;;;;;;;;;20.00;20.00;27.70;37.10;;;;;;5097035;28;9505;-81
2022/07/07 00:20:28;;;;;;;;;19.00;18.33;27.70;37.10;;;;;;5097668;28;8823;-78
2022/07/07 00:22:54;;;;;;;;;18.33;18.33;27.60;37.40;;;;;;5079252;28;8772;-79
2022/07/07 00:25:20;;;;;;;;;18.67;18.67;27.60;37.50;;;;;;5079582;28;8752;-80
2022/07/07 00:27:46;;;;;;;;;16.00;16.00;27.60;37.40;;;;;;5097160;28;8759;-79
2022/07/07 00:30:12;;;;;;;;;18.00;18.00;27.60;37.40;;;;;;5097095;28;8768;-79
2022/07/07 00:32:38;;;;;;;;;18.33;18.33;27.50;37.50;;;;;;5097147;28;8894;-81
2022/07/07 00:35:05;;;;;;;;;20.00;20.00;27.50;37.70;;;;;;5097026;28;12101;-79
2022/07/07 00:37:30;;;;;;;;;20.67;19.00;27.30;38.30;;;;;;5096915;28;8775;-79
2022/07/07 00:39:56;;;;;;;;;17.00;17.00;27.20;38.30;;;;;;5095016;28;9109;-80
2022/07/07 00:42:22;;;;;;;;;17.00;17.00;27.20;38.50;;;;;;5096715;28;8858;-81
2022/07/07 00:44:48;;;;;;;;;20.33;20.33;27.30;38.40;;;;;;5096752;28;8756;-79
2022/07/07 00:47:14;;;;;;;;;20.00;18.00;27.20;38.40;;;;;;5096463;28;8764;-79
2022/07/07 00:49:41;;;;;;;;;20.00;20.00;27.20;38.30;;;;;;5096741;28;8810;-80
2022/07/07 00:52:08;;;;;;;;;19.67;19.67;27.20;38.40;;;;;;5096591;28;8740;-82
2022/07/07 00:54:34;;;;;;;;;20.67;20.00;27.20;38.70;;;;;;5096763;28;8767;-81
2022/07/07 00:57:00;;;;;;;;;21.00;20.00;27.00;39.10;;;;;;5078691;28;8792;-81
2022/07/07 00:59:26;;;;;;;;;17.33;17.33;26.90;39.40;;;;;;5096440;28;8782;-80
2022/07/07 01:01:53;;;;;;;;;18.33;18.33;26.90;39.30;;;;;;5095733;28;8823;-80
2022/07/07 01:04:19;;;;;;;;;18.00;18.00;26.90;39.10;;;;;;5096314;28;8764;-79
2022/07/07 01:06:45;;;;;;;;;16.33;15.33;27.00;39.00;;;;;;5096193;28;8794;-79
2022/07/07 01:09:10;;;;;;;;;20.33;20.00;27.10;39.10;;;;;;5096455;28;8771;-77
2022/07/07 01:11:50;;;;;;;;;18.00;18.00;27.10;38.90;;;;;;5096132;28;8763;-78
2022/07/07 01:14:17;;;;;;;;;20.00;20.00;26.90;39.30;;;;;;5096099;28;8779;-79
2022/07/07 01:16:43;;;;;;;;;17.00;17.00;26.70;40.00;;;;;;5096106;28;8760;-79
2022/07/07 01:19:09;;;;;;;;;17.33;17.00;26.60;40.30;;;;;;5095711;28;11609;-80
2022/07/07 01:22:00;;;;;;;;;17.67;17.67;26.20;41.30;;;;;;5096060;28;8910;-79
2022/07/07 01:24:28;;;;;;;;;21.00;21.00;26.10;41.20;;;;;;5095280;28;8760;-81
2022/07/07 01:27:10;;;;;;;;;21.33;19.33;26.00;41.60;;;;;;5096115;28;8756;-80
2022/07/07 01:29:41;;;;;;;;;18.00;17.67;26.20;41.20;;;;;;5095845;28;8928;-78
2022/07/07 01:32:08;;;;;;;;;16.00;16.00;26.20;41.20;;;;;;5095965;28;8833;-80
2022/07/07 01:34:38;;;;;;;;;18.33;18.33;26.10;41.30;;;;;;5095532;28;11450;-81
2022/07/07 01:37:05;;;;;;;;;21.33;21.00;26.20;41.10;;;;;;5078053;28;8776;-78
2022/07/07 01:39:32;;;;;;;;;21.00;19.33;26.20;41.00;;;;;;5095818;28;8760;-80
2022/07/07 01:41:58;;;;;;;;;17.67;17.67;26.10;41.40;;;;;;5077480;28;9520;-80
2022/07/07 01:44:24;;;;;;;;;20.00;19.00;26.20;41.10;;;;;;5095705;28;8828;-79
2022/07/07 01:46:50;;;;;;;;;22.00;20.33;26.30;41.00;;;;;;5095381;28;8795;-79
2022/07/07 01:49:16;;;;;;;;;16.33;15.33;26.30;40.90;;;;;;5095864;28;8795;-79
2022/07/07 01:51:42;;;;;;;;;19.33;19.33;26.30;40.90;;;;;;5095616;28;8874;-79
2022/07/07 01:54:09;;;;;;;;;22.00;21.67;26.40;40.80;;;;;;5095372;28;9508;-78
2022/07/07 01:56:34;;;;;;;;;18.00;17.33;26.40;40.70;;;;;;5095331;28;8782;-80
2022/07/07 01:59:00;;;;;;;;;20.67;19.67;26.40;40.70;;;;;;5095169;28;8776;-79
2022/07/07 02:01:26;;;;;;;;;21.33;21.33;26.30;40.80;;;;;;5077301;28;8819;-80
2022/07/07 02:03:52;;;;;;;;;20.67;18.67;26.40;40.80;;;;;;5095124;28;8788;-79
2022/07/07 02:06:18;;;;;;;;;21.00;20.00;26.20;41.00;;;;;;5095008;28;8776;-80
2022/07/07 02:08:43;;;;;;;;;18.33;18.00;26.10;41.10;;;;;;5095191;28;8776;-81
2022/07/07 02:11:15;;;;;;;;;19.00;19.00;25.90;41.70;;;;;;5095078;28;8792;-79
2022/07/07 02:13:41;;;;;;;;;19.00;19.00;25.70;42.20;;;;;;5094740;28;8756;-81
2022/07/07 02:16:07;;;;;;;;;18.67;18.67;25.80;41.90;;;;;;5076805;28;8780;-82
2022/07/07 02:18:38;;;;;;;;;16.33;16.00;25.80;42.10;;;;;;5094797;28;8901;-81
2022/07/07 02:21:05;;;;;;;;;19.00;18.33;25.80;42.30;;;;;;5095129;28;8818;-79
2022/07/07 02:23:32;;;;;;;;;19.33;19.00;25.70;42.30;;;;;;5095066;28;8763;-80
2022/07/07 02:25:58;;;;;;;;;18.00;18.00;25.60;42.50;;;;;;5094712;28;8763;-79
2022/07/07 02:28:24;;;;;;;;;23.33;22.00;25.70;42.30;;;;;;5095377;28;8744;-80
2022/07/07 02:30:51;;;;;;;;;19.33;19.00;25.70;42.20;;;;;;5095453;28;8779;-80
2022/07/07 02:33:18;;;;;;;;;19.33;19.33;25.60;42.60;;;;;;5095404;28;8929;-79
2022/07/07 02:35:43;;;;;;;;;19.00;19.00;25.60;42.80;;;;;;5096386;28;8760;-79
2022/07/07 02:38:09;;;;;;;;;18.00;18.00;25.70;42.60;;;;;;5096081;28;8810;-80
2022/07/07 02:40:35;;;;;;;;;20.00;20.00;25.70;42.50;;;;;;5078183;28;8838;-81
2022/07/07 02:43:01;;;;;;;;;19.67;19.67;25.60;42.70;;;;;;5095717;28;8764;-81
2022/07/07 02:45:26;;;;;;;;;18.67;18.67;25.60;42.60;;;;;;5095853;28;8767;-79
2022/07/07 02:47:52;;;;;;;;;18.67;18.67;25.60;43.00;;;;;;5094863;28;8884;-80
2022/07/07 02:50:18;;;;;;;;;19.67;18.00;25.40;43.20;;;;;;5095118;28;9456;-80
2022/07/07 02:52:44;;;;;;;;;19.00;19.00;25.10;44.30;;;;;;5095019;28;8752;-79
2022/07/07 02:55:10;;;;;;;;;20.33;20.33;24.70;45.40;;;;;;5094564;28;8798;-80
2022/07/07 02:57:38;;;;;;;;;21.67;21.67;24.50;45.90;;;;;;5094491;28;8752;-81
2022/07/07 03:00:06;;;;;;;;;19.67;19.67;24.50;46.00;;;;;;5094478;28;8870;-80
2022/07/07 03:02:32;;;;;;;;;17.33;17.33;24.70;45.20;;;;;;5094354;28;8834;-79
2022/07/07 03:04:58;;;;;;;;;20.00;20.00;25.00;45.60;;;;;;5079579;28;8779;-80
2022/07/07 03:07:23;;;;;;;;;17.33;17.33;25.10;44.60;;;;;;5095245;28;8772;-79
2022/07/07 03:09:49;;;;;;;;;18.33;18.33;24.90;45.00;;;;;;5094769;28;8800;-78
2022/07/07 03:12:15;;;;;;;;;20.00;20.00;24.70;45.40;;;;;;5094509;28;9476;-79
2022/07/07 03:14:41;;;;;;;;;16.33;16.33;24.60;45.80;;;;;;5094236;28;8764;-78
2022/07/07 03:17:07;;;;;;;;;22.00;22.00;24.60;45.70;;;;;;5094282;28;8782;-78
2022/07/07 03:19:34;;;;;;;;;16.67;16.67;24.60;45.80;;;;;;5094029;28;8884;-79
2022/07/07 03:22:04;;;;;;;;;21.00;21.00;24.90;45.00;;;;;;5094255;28;9490;-80
2022/07/07 03:24:31;;;;;;;;;24.00;22.33;25.00;45.00;;;;;;5094698;28;9430;-78
2022/07/07 03:26:58;;;;;;;;;20.00;19.00;25.10;44.60;;;;;;5097546;28;8756;-79
2022/07/07 03:29:25;;;;;;;;;21.00;21.00;25.20;44.20;;;;;;5098261;28;8771;-80
2022/07/07 03:31:51;;;;;;;;;19.67;19.67;25.40;44.00;;;;;;5098342;28;8783;-78
2022/07/07 03:34:16;;;;;;;;;20.33;20.33;25.30;43.80;;;;;;5098205;28;8764;-79
2022/07/07 03:36:42;;;;;;;;;19.67;19.67;25.30;43.90;;;;;;5098170;28;9456;-79
2022/07/07 03:39:08;;;;;;;;;18.33;17.67;25.40;43.60;;;;;;5098152;28;8744;-80
2022/07/07 03:41:34;;;;;;;;;22.00;21.00;25.40;43.50;;;;;;5097669;28;8819;-80
2022/07/07 03:43:59;;;;;;;;;16.67;15.67;25.30;43.90;;;;;;5097793;28;8791;-79
2022/07/07 03:46:25;;;;;;;;;20.00;20.00;25.30;43.70;;;;;;5098037;28;8768;-80
2022/07/07 03:48:51;;;;;;;;;20.33;20.33;25.20;43.90;;;;;;5097828;28;9441;-80
2022/07/07 03:51:17;;;;;;;;;21.67;19.67;25.10;44.20;;;;;;5097692;28;9239;-79
2022/07/07 03:53:43;;;;;;;;;21.33;21.33;25.30;44.10;;;;;;5097592;28;8759;-79
2022/07/07 03:56:08;;;;;;;;;22.33;22.33;25.30;43.90;;;;;;5097640;28;8874;-79
2022/07/07 03:58:34;;;;;;;;;21.00;19.33;25.30;44.00;;;;;;5097731;28;8772;-79
2022/07/07 04:01:00;;;;;;;;;17.00;15.67;25.10;44.80;;;;;;5097422;28;8807;-80
2022/07/07 04:03:26;;;;;;;;;21.67;21.67;24.90;45.20;;;;;;5097624;28;8818;-80
2022/07/07 04:05:52;;;;;;;;;23.00;21.33;24.90;45.10;;;;;;5097695;28;8788;-79
2022/07/07 04:08:18;;;;;;;;;20.33;20.33;24.80;45.40;;;;;;5097456;28;8875;-78
2022/07/07 04:10:44;;;;;;;;;21.67;21.00;24.80;45.10;;;;;;5097650;28;8907;-79
2022/07/07 04:13:10;;;;;;;;;25.00;25.00;24.90;45.20;;;;;;5097508;28;8772;-78
2022/07/07 04:15:36;;;;;;;;;22.67;22.00;25.10;44.70;;;;;;5097226;28;9374;-78
2022/07/07 04:18:02;;;;;;;;;21.33;20.33;25.10;44.70;;;;;;5096894;28;8912;-79
2022/07/07 04:20:29;;;;;;;;;25.33;25.33;25.00;44.90;;;;;;5097119;28;8760;-78
2022/07/07 04:22:56;;;;;;;;;18.67;18.67;25.00;45.00;;;;;;5097027;28;8772;-80
2022/07/07 04:25:22;;;;;;;;;21.67;21.67;25.10;44.70;;;;;;5097106;28;8859;-79
2022/07/07 04:27:49;;;;;;;;;23.67;22.00;25.00;44.70;;;;;;5097019;28;8906;-79
2022/07/07 04:30:14;;;;;;;;;21.33;21.33;25.00;44.90;;;;;;5097190;28;9518;-79
2022/07/07 04:32:41;;;;;;;;;21.00;21.00;25.00;45.10;;;;;;5096928;28;8783;-80
2022/07/07 04:35:08;;;;;;;;;24.00;24.00;25.10;45.00;;;;;;5097018;28;9402;-79
2022/07/07 04:37:34;;;;;;;;;19.33;17.33;25.10;45.00;;;;;;5078033;28;8756;-78
2022/07/07 04:39:59;;;;;;;;;23.33;23.33;25.20;44.80;;;;;;5096960;28;8795;-80
2022/07/07 04:42:25;;;;;;;;;26.33;25.33;25.20;44.90;;;;;;5096624;28;9195;-79
2022/07/07 04:44:51;;;;;;;;;20.00;20.00;25.10;45.00;;;;;;5096968;28;8840;-78
2022/07/07 04:47:17;;;;;;;;;22.33;21.67;24.90;45.60;;;;;;5096386;28;8772;-79
2022/07/07 04:49:43;;;;;;;;;18.33;18.33;24.90;45.70;;;;;;5096674;28;8886;-79
2022/07/07 04:52:09;;;;;;;;;23.00;23.00;24.90;45.80;;;;;;5097062;28;8786;-80
2022/07/07 04:54:35;;;;;;;;;21.33;21.33;25.10;45.60;;;;;;5096464;28;8763;-80
2022/07/07 04:57:01;;;;;;;;;23.67;22.67;25.10;45.30;;;;;;5096504;28;8845;-81
2022/07/07 04:59:26;;;;;;;;;24.00;23.00;25.10;45.50;;;;;;5096558;28;8776;-80
2022/07/07 05:01:52;;;;;;;;;21.33;21.33;25.10;45.40;;;;;;5096426;28;8795;-79
2022/07/07 05:04:18;;;;;;;;;24.00;24.00;25.10;45.60;;;;;;5096320;28;8866;-81
2022/07/07 05:06:44;;;;;;;;;21.33;21.00;25.10;45.70;;;;;;5096644;28;8756;-80
2022/07/07 05:09:09;;;;;;;;;19.33;19.33;25.00;45.90;;;;;;5096185;28;8764;-78
2022/07/07 05:11:36;;;;;;;;;20.33;20.33;25.00;46.00;;;;;;5096475;28;8756;-79
2022/07/07 05:14:02;;;;;;;;;18.33;18.33;24.90;46.00;;;;;;5096057;28;8779;-81
2022/07/07 05:16:29;;;;;;;;;24.33;23.67;24.90;46.30;;;;;;5096089;28;8775;-79
2022/07/07 05:18:55;;;;;;;;;24.67;24.00;25.00;46.30;;;;;;5095803;28;8937;-78
2022/07/07 05:21:21;;;;;;;;;23.00;23.00;25.00;46.30;;;;;;5095955;28;8914;-79
2022/07/07 05:23:47;;;;;;;;;22.67;22.67;25.00;46.30;;;;;;5095915;28;8772;-78
2022/07/07 05:26:13;;;;;;;;;21.33;21.33;24.90;46.20;;;;;;5077920;28;8936;-78
2022/07/07 05:28:42;;;;;;;;;19.67;19.33;25.00;46.30;;;;;;5095826;28;8874;-78
2022/07/07 05:31:10;;;;;;;;;23.00;21.00;25.10;46.30;;;;;;5095628;28;8783;-80
2022/07/07 05:33:36;;;;;;;;;23.33;23.33;25.10;46.30;;;;;;5095964;28;8829;-79
2022/07/07 05:36:04;;;;;;;;;21.67;19.33;24.90;46.20;;;;;;5095766;28;8850;-81
2022/07/07 05:38:30;;;;;;;;;21.00;20.33;24.90;46.20;;;;;;5095905;28;8760;-80
2022/07/07 05:40:56;;;;;;;;;17.33;17.33;24.90;46.10;;;;;;5095492;28;8815;-78
2022/07/07 05:43:22;;;;;;;;;17.67;17.67;24.90;46.20;;;;;;5095619;28;8782;-79
2022/07/07 05:45:48;;;;;;;;;21.00;21.00;24.80;46.30;;;;;;5095659;28;8767;-79
2022/07/07 05:48:13;;;;;;;;;26.00;24.00;24.60;47.10;;;;;;5095396;28;9446;-80
2022/07/07 05:50:39;;;;;;;;;17.00;17.00;24.60;46.60;;;;;;5095387;28;8760;-78
2022/07/07 05:53:05;;;;;;;;;19.33;19.33;24.50;46.70;;;;;;5095307;28;8760;-79
2022/07/07 05:55:31;;;;;;;;;16.33;16.33;24.60;46.40;;;;;;5095540;28;8744;-78
2022/07/07 05:57:57;;;;;;;;;20.67;20.00;24.70;46.20;;;;;;5095303;28;8780;-78
2022/07/07 06:00:24;;;;;;;;;18.00;18.00;24.70;45.90;;;;;;5095469;28;8844;-77
2022/07/07 06:02:51;;;;;;;;;14.33;14.33;24.50;45.60;;;;;;5095473;28;8788;-80
2022/07/07 06:05:17;;;;;;;;;17.00;17.00;24.30;46.30;;;;;;5095370;28;8859;-78
2022/07/07 06:07:43;;;;;;;;;20.33;19.33;24.40;45.80;;;;;;5095014;28;8763;-77
2022/07/07 06:10:14;;;;;;;;;18.33;18.33;24.40;45.30;;;;;;5095178;28;8783;-78
2022/07/07 06:12:43;;;;;;;;;15.00;15.00;24.60;45.20;;;;;;5095159;28;8802;-79
2022/07/07 06:15:09;;;;;;;;;8.67;8.67;24.70;45.00;;;;;;5095245;28;8844;-78
2022/07/07 06:17:35;;;;;;;;;18.00;18.00;24.50;45.10;;;;;;5094727;28;8845;-79
2022/07/07 06:20:02;;;;;;;;;17.00;16.67;24.80;44.90;;;;;;5094887;28;8776;-79
2022/07/07 06:22:29;;;;;;;;;17.00;16.00;24.80;43.10;;;;;;5094825;28;8796;-81
2022/07/07 06:24:55;;;;;;;;;21.33;19.33;24.70;43.90;;;;;;5094675;28;8764;-80
2022/07/07 06:27:21;;;;;;;;;13.00;12.33;24.80;44.10;;;;;;5094772;28;8767;-79
2022/07/07 06:29:47;;;;;;;;;18.33;18.33;24.90;43.60;;;;;;5094907;28;8779;-78
2022/07/07 06:32:16;;;;;;;;;19.00;19.00;24.50;44.30;;;;;;5095043;28;8779;-79
2022/07/07 06:34:43;;;;;;;;;18.33;18.33;24.20;45.50;;;;;;5094672;28;8760;-79
2022/07/07 06:37:09;;;;;;;;;21.33;19.00;24.40;45.20;;;;;;5094921;28;8786;-79
2022/07/07 06:39:35;;;;;;;;;16.00;16.00;24.50;44.90;;;;;;5094577;28;8752;-80
2022/07/07 06:42:01;;;;;;;;;19.00;19.00;24.50;45.20;;;;;;5094725;28;8834;-79
2022/07/07 06:44:32;;;;;;;;;20.67;20.33;24.60;45.40;;;;;;5094471;28;8760;-77
2022/07/07 06:46:59;;;;;;;;;21.33;21.33;24.90;44.90;;;;;;5094580;28;8772;-78
2022/07/07 06:49:28;;;;;;;;;20.00;20.00;24.90;44.90;;;;;;5094794;28;8906;-79
2022/07/07 06:51:55;;;;;;;;;17.67;16.00;24.70;45.60;;;;;;5094544;28;8768;-79
2022/07/07 06:54:21;;;;;;;;;18.33;18.33;24.70;46.00;;;;;;5094600;28;8775;-79
2022/07/07 06:56:47;;;;;;;;;16.67;15.00;25.00;45.10;;;;;;5094815;28;8752;-79
2022/07/07 06:59:13;;;;;;;;;17.67;17.67;25.10;45.30;;;;;;5078058;28;9453;-81
2022/07/07 07:01:40;;;;;;;;;17.67;17.67;25.10;44.60;;;;;;5097424;28;8869;-81
2022/07/07 07:04:07;;;;;;;;;14.67;14.67;24.90;44.60;;;;;;5080640;28;8775;-79
2022/07/07 07:06:33;;;;;;;;;17.00;17.00;25.30;44.00;;;;;;5098773;28;9641;-79
2022/07/07 07:08:59;;;;;;;;;18.00;15.33;25.40;43.40;;;;;;5098814;28;8752;-79
2022/07/07 07:11:26;;;;;;;;;15.33;15.33;25.50;43.10;;;;;;5098585;28;9416;-81
2022/07/07 07:13:52;;;;;;;;;17.67;17.33;25.60;43.20;;;;;;5098338;28;8782;-79
2022/07/07 07:16:18;;;;;;;;;13.00;13.00;25.40;42.60;;;;;;5098412;28;8755;-79
2022/07/07 07:18:45;;;;;;;;;18.00;16.67;25.30;42.60;;;;;;5098131;28;8816;-79
2022/07/07 07:21:11;;;;;;;;;18.00;18.00;25.30;42.90;;;;;;5098433;28;8819;-79
2022/07/07 07:23:38;;;;;;;;;14.00;14.00;25.30;43.30;;;;;;5098138;28;8752;-82
2022/07/07 07:26:05;;;;;;;;;14.00;14.00;25.40;42.60;;;;;;5098351;28;8768;-79
2022/07/07 07:28:30;;;;;;;;;14.33;14.33;25.50;41.90;;;;;;5098387;28;8864;-82
2022/07/07 07:30:56;;;;;;;;;12.00;12.00;25.50;42.20;;;;;;5097866;28;11427;-79
2022/07/07 07:33:22;;;;;;;;;18.00;17.00;25.40;42.00;;;;;;5098304;28;8784;-80
2022/07/07 07:35:49;;;;;;;;;15.33;15.33;25.30;42.00;;;;;;5098482;28;8761;-80
2022/07/07 07:38:15;;;;;;;;;19.00;19.00;25.50;41.50;;;;;;5098127;28;8863;-81
2022/07/07 07:40:41;;;;;;;;;17.00;17.00;25.50;41.60;;;;;;5097869;28;8854;-80
2022/07/07 07:43:06;;;;;;;;;21.33;21.33;25.70;41.50;;;;;;5097845;28;8828;-80
2022/07/07 07:45:32;;;;;;;;;14.67;13.67;25.80;42.40;;;;;;5097813;28;8756;-81
2022/07/07 07:48:01;;;;;;;;;16.33;15.67;25.80;41.30;;;;;;5097826;28;8788;-79
2022/07/07 07:50:27;;;;;;;;;16.33;15.67;25.70;41.50;;;;;;5097704;28;8756;-78
2022/07/07 07:52:53;;;;;;;;;16.67;16.33;25.60;40.90;;;;;;5097510;28;8877;-79
2022/07/07 07:55:21;;;;;;;;;14.33;14.33;25.50;41.00;;;;;;5097874;28;8751;-80
2022/07/07 07:57:48;;;;;;;;;15.67;14.67;25.50;41.30;;;;;;5097582;28;8779;-77
2022/07/07 08:00:16;;;;;;;;;12.33;12.33;25.50;41.20;;;;;;5097885;28;11415;-76
2022/07/07 08:02:42;;;;;;;;;14.00;12.33;25.40;41.60;;;;;;5097378;28;8780;-80
2022/07/07 08:05:10;;;;;;;;;12.67;12.67;25.60;40.90;;;;;;5097853;28;11450;-79
2022/07/07 08:07:36;;;;;;;;;15.33;14.33;25.90;40.60;;;;;;5097190;28;11408;-79
2022/07/07 08:10:02;;;;;;;;;15.33;14.00;25.80;40.90;;;;;;5096896;28;11435;-79
2022/07/07 08:12:31;;;;;;;;;15.33;15.33;26.10;40.10;;;;;;5079164;28;11436;-80
2022/07/07 08:14:57;;;;;;;;;11.00;11.00;26.00;39.20;;;;;;5097112;28;11459;-78
2022/07/07 08:17:23;;;;;;;;;11.33;11.33;26.00;39.40;;;;;;5096506;28;11467;-80
2022/07/07 08:19:49;;;;;;;;;11.67;11.00;26.10;39.60;;;;;;5097113;28;8748;-80
2022/07/07 08:22:15;;;;;;;;;11.00;11.00;26.20;38.80;;;;;;5096951;28;8808;-80
2022/07/07 08:24:41;;;;;;;;;13.00;13.00;26.30;37.70;;;;;;5097013;28;8760;-80
2022/07/07 08:27:07;;;;;;;;;13.33;13.33;26.40;36.90;;;;;;5097009;28;8791;-81
2022/07/07 08:29:37;;;;;;;;;8.67;8.67;26.40;37.50;;;;;;5096939;28;8760;-78
2022/07/07 08:32:05;;;;;;;;;11.67;11.67;26.40;37.50;;;;;;5097321;28;11422;-81
2022/07/07 08:34:31;;;;;;;;;11.67;11.67;26.50;37.30;;;;;;5096792;28;11417;-81
2022/07/07 08:36:57;;;;;;;;;11.00;11.00;26.50;36.60;;;;;;5078791;28;11438;-80
2022/07/07 08:39:23;;;;;;;;;9.00;9.00;26.60;36.70;;;;;;5096788;28;8756;-81
2022/07/07 08:41:49;;;;;;;;;12.67;12.67;26.60;35.10;;;;;;5096718;28;8799;-80
2022/07/07 08:44:17;;;;;;;;;7.67;7.00;26.40;36.30;;;;;;5096917;28;8760;-80
2022/07/07 08:46:42;;;;;;;;;10.67;10.67;26.50;36.70;;;;;;5096684;28;11409;-80
2022/07/07 08:49:11;;;;;;;;;11.33;10.33;26.70;36.20;;;;;;5096763;28;12093;-81
2022/07/07 08:51:41;;;;;;;;;8.67;8.67;26.80;35.20;;;;;;5096723;28;11446;-81
2022/07/07 08:54:10;;;;;;;;;11.00;10.75;26.80;34.60;;;;;;5096473;28;11382;-80
2022/07/07 08:56:38;;;;;;;;;6.00;6.00;26.60;35.30;;;;;;5096539;28;11426;-80
2022/07/07 08:59:09;;;;;;;;;10.00;10.00;26.70;35.20;;;;;;5096362;28;11452;-81
2022/07/07 09:01:36;;;;;;;;;12.75;12.75;26.60;35.30;;;;;;5096246;28;11463;-80
2022/07/07 09:04:03;;;;;;;;;12.00;11.33;26.80;35.50;;;;;;5096399;28;11503;-81
2022/07/07 09:06:30;;;;;;;;;13.00;13.00;26.70;35.50;;;;;;5096040;28;11410;-80
2022/07/07 09:08:56;;;;;;;;;11.33;11.33;26.80;35.50;;;;;;5095998;28;11415;-81
2022/07/07 09:11:28;;;;;;;;;15.00;13.00;26.90;35.30;;;;;;5096068;28;11526;-80
2022/07/07 09:14:10;;;;;;;;;12.50;12.50;27.00;35.30;;;;;;5096021;28;11562;-80
2022/07/07 09:16:36;;;;;;;;;11.75;11.75;26.90;35.00;;;;;;5096083;28;11401;-80
2022/07/07 09:19:06;;;;;;;;;11.00;11.00;27.10;34.70;;;;;;5077664;28;11494;-81
2022/07/07 09:21:32;;;;;;;;;13.00;12.33;27.10;34.60;;;;;;5095940;28;11475;-80
2022/07/07 09:24:00;;;;;;;;;12.00;12.00;27.20;34.50;;;;;;5095317;28;11433;-80
2022/07/07 09:26:36;;;;;;;;;14.00;14.00;27.40;34.80;;;;;;5096189;28;11503;-80
2022/07/07 09:29:07;;;;;;;;;8.67;8.00;27.50;34.50;;;;;;5095731;28;12062;-80
2022/07/07 09:32:04;;;;;;;;;11.00;11.00;27.30;33.60;;;;;;5095696;28;11371;-81
2022/07/07 09:34:35;;;;;;;;;10.00;10.00;27.30;34.10;;;;;;5095702;28;11418;-81
2022/07/07 09:39:50;;;;;;;;;11.33;11.33;27.20;33.60;;;;;;5095633;28;11424;-80
2022/07/07 09:42:18;;;;;;;;;12.00;12.00;27.20;33.60;;;;;;5095513;28;11464;-81
2022/07/07 09:44:47;;;;;;;;;10.50;9.75;27.50;33.90;;;;;;5095608;28;11415;-80
2022/07/07 09:47:13;;;;;;;;;12.25;12.25;27.40;32.70;;;;;;5095349;28;11417;-81
2022/07/07 09:49:43;;;;;;;;;11.33;9.67;27.20;32.90;;;;;;5095182;28;12028;-81
2022/07/07 09:52:19;;;;;;;;;13.00;13.00;27.20;32.80;;;;;;5095356;28;8776;-81
2022/07/07 09:54:49;;;;;;;;;10.67;10.00;27.50;32.80;;;;;;5095348;28;11425;-80
2022/07/07 09:57:18;;;;;;;;;10.00;10.00;27.50;31.90;;;;;;5095212;28;11488;-80
2022/07/07 09:59:44;;;;;;;;;28.00;25.67;27.30;32.10;;;;;;5095101;28;11560;-80
2022/07/07 10:02:41;;;;;;;;;14.00;14.00;27.50;31.80;;;;;;5095065;28;11501;-81
2022/07/07 10:05:07;;;;;;;;;14.67;14.67;27.80;31.80;;;;;;5012752;28;11452;-81
2022/07/07 10:07:34;;;;;;;;;11.00;11.00;27.80;31.60;;;;;;5013001;28;11463;-81
2022/07/07 10:10:10;;;;;;;;;14.75;12.75;27.90;31.60;;;;;;5012743;28;12269;-81
2022/07/07 10:12:44;;;;;;;;;12.00;11.75;27.90;31.00;;;;;;5012814;28;11543;-80
2022/07/07 10:15:13;;;;;;;;;11.50;11.50;28.00;31.80;;;;;;5012678;28;11498;-81
2022/07/07 10:17:43;;;;;;;;;15.33;15.33;28.00;31.70;;;;;;5012444;28;12314;-81
2022/07/07 10:20:11;;;;;;;;;35.00;32.33;28.10;30.50;;;;;;4996517;28;8776;-81
2022/07/07 10:22:37;;;;;;;;;32.67;30.00;28.10;31.00;;;;;;5012786;28;8913;-82
2022/07/07 10:25:07;;;;;;;;;41.25;35.75;28.20;30.60;;;;;;5013062;28;8768;-81
2022/07/07 10:27:33;;;;;;;;;8.75;8.75;28.40;30.40;;;;;;5012758;28;8939;-81
2022/07/07 10:30:02;;;;;;;;;7.50;7.50;28.60;29.40;;;;;;5012624;28;11475;-81
2022/07/07 10:32:59;;;;;;;;;7.50;7.50;28.70;29.00;;;;;;5012457;28;11543;-81
2022/07/07 10:35:25;;;;;;;;;7.25;7.25;28.80;29.00;;;;;;5007800;28;11423;-81
2022/07/07 10:37:56;;;;;;;;;10.00;9.00;28.80;27.40;;;;;;5012838;28;11418;-82
2022/07/07 10:40:27;;;;;;;;;10.00;10.00;28.90;27.00;;;;;;5016078;28;11532;-82
2022/07/07 10:43:28;;;;;;;;;12.25;11.75;29.10;27.60;;;;;;5094315;28;11565;-82
2022/07/07 10:45:55;;;;;;;;;9.50;9.50;29.10;27.10;;;;;;5094693;28;11446;-82
2022/07/07 10:48:39;;;;;;;;;6.00;6.00;29.00;27.50;;;;;;5094491;28;11440;-81
2022/07/07 10:51:19;;;;;;;;;8.00;8.00;29.10;26.70;;;;;;5094644;28;11492;-81
2022/07/07 10:53:55;;;;;;;;;10.25;9.25;29.20;26.50;;;;;;5094618;28;11369;-81
2022/07/07 10:56:20;;;;;;;;;7.25;7.25;29.10;27.10;;;;;;5094555;28;11442;-81
2022/07/07 10:58:53;;;;;;;;;7.00;7.00;29.10;27.30;;;;;;5094263;28;11404;-81
2022/07/07 11:01:20;;;;;;;;;9.00;9.00;29.20;27.90;;;;;;5094578;28;8845;-81
2022/07/07 11:03:46;;;;;;;;;10.00;10.00;29.20;27.10;;;;;;5094272;28;11382;-81
2022/07/07 11:06:12;;;;;;;;;7.25;7.25;29.20;27.20;;;;;;5094163;28;11383;-81
2022/07/07 11:08:38;;;;;;;;;7.75;7.75;29.20;27.00;;;;;;5094581;28;8756;-81
2022/07/07 11:11:06;;;;;;;;;11.00;11.00;29.20;27.20;;;;;;5094231;28;11450;-81
2022/07/07 11:13:34;;;;;;;;;8.75;8.75;29.50;27.70;;;;;;5094386;28;11409;-81
2022/07/07 11:16:34;;;;;;;;;10.25;10.25;29.60;27.30;;;;;;5094154;28;11425;-80
2022/07/07 11:19:03;;;;;;;;;7.25;7.25;29.70;27.00;;;;;;5011581;28;12171;-80
2022/07/07 11:21:40;;;;;;;;;9.00;9.00;29.80;26.70;;;;;;5011909;28;11494;-81
2022/07/07 11:24:21;;;;;;;;;8.25;8.25;29.90;26.80;;;;;;5012039;28;11424;-81
2022/07/07 11:27:01;;;;;;;;;7.75;7.75;30.10;26.50;;;;;;5012085;28;11423;-80
2022/07/07 11:29:29;;;;;;;;;8.00;8.00;30.00;26.60;;;;;;5012129;28;11429;-81
2022/07/07 11:32:03;;;;;;;;;8.50;8.50;30.20;26.80;;;;;;5011924;28;11508;-81
2022/07/07 11:34:48;;;;;;;;;6.75;6.75;30.30;27.00;;;;;;4995585;28;11478;-81
2022/07/07 11:37:28;;;;;;;;;9.00;8.00;30.30;27.00;;;;;;5011907;28;11498;-82
2022/07/07 11:39:55;;;;;;;;;8.25;8.25;31.10;26.90;;;;;;5011897;28;11422;-82
2022/07/07 11:42:21;;;;;;;;;7.00;5.25;32.10;25.70;;;;;;5012096;28;11472;-82
2022/07/07 11:44:47;;;;;;;;;6.00;6.00;32.60;25.30;;;;;;5011898;28;11570;-82
2022/07/07 11:47:14;;;;;;;;;8.50;8.50;33.80;24.20;;;;;;5013805;28;11531;-82
2022/07/07 11:49:40;;;;;;;;;7.25;7.25;35.00;23.20;;;;;;5015677;28;8784;-82
2022/07/07 11:52:11;;;;;;;;;9.25;9.25;36.50;22.50;;;;;;5015386;28;11710;-83
2022/07/07 11:54:48;;;;;;;;;6.75;6.75;37.80;21.40;;;;;;5059025;28;11537;-80
2022/07/07 11:57:49;;;;;;;;;6.00;6.00;39.10;20.50;;;;;;5097850;28;12051;-81
2022/07/07 12:00:17;;;;;;;;;3.00;3.00;40.30;19.80;;;;;;5054797;28;11389;-81
2022/07/07 12:02:45;;;;;;;;;6.25;6.25;41.30;19.30;;;;;;5097513;28;11566;-81
2022/07/07 12:05:12;;;;;;;;;6.00;6.00;42.20;19.10;;;;;;5097653;28;11393;-82
2022/07/07 12:07:41;;;;;;;;;8.75;8.75;42.40;18.30;;;;;;5097284;28;11484;-82
2022/07/07 12:10:27;;;;;;;;;7.00;7.00;42.10;18.30;;;;;;5079335;28;12035;-83
2022/07/07 12:13:13;;;;;;;;;8.00;8.00;42.20;18.30;;;;;;5097235;28;11408;-82
2022/07/07 12:15:43;;;;;;;;;7.75;7.75;42.90;18.50;;;;;;5097249;28;11480;-82
2022/07/07 12:18:10;;;;;;;;;9.00;9.00;43.00;18.40;;;;;;5078756;28;11448;-83
2022/07/07 12:20:38;;;;;;;;;8.50;8.50;43.40;18.30;;;;;;5079126;28;12034;-83
2022/07/07 12:23:09;;;;;;;;;9.25;9.25;44.00;17.90;;;;;;5096868;28;12114;-82
2022/07/07 12:25:36;;;;;;;;;8.00;8.00;44.10;16.80;;;;;;5096988;28;11390;-84
2022/07/07 12:28:07;;;;;;;;;7.00;7.00;43.20;17.60;;;;;;5096929;28;11420;-82
2022/07/07 12:30:53;;;;;;;;;5.75;5.75;42.60;18.10;;;;;;5096878;28;11433;-83
2022/07/07 12:33:39;;;;;;;;;5.50;5.50;42.50;18.20;;;;;;5096788;28;11434;-83
2022/07/07 12:36:16;;;;;;;;;6.25;6.25;43.40;18.10;;;;;;5096871;28;11496;-83
2022/07/07 12:38:48;;;;;;;;;6.00;6.00;44.10;17.90;;;;;;5096554;28;11395;-83
2022/07/07 12:41:21;;;;;;;;;5.50;5.50;45.00;16.90;;;;;;5094732;28;11433;-84
2022/07/07 12:43:47;;;;;;;;;6.00;6.00;45.40;16.70;;;;;;5096670;28;11389;-84
2022/07/07 12:46:13;;;;;;;;;7.25;7.25;45.60;17.10;;;;;;5096495;28;11462;-83